sensor_id;sensor_type;location;lat;lon;timestamp;pressure;altitude;pressure_sealevel;temperature;humidity
5952;BME280;3001;42.622;23.194;2023-05-24T00:02:07;91169.69;;;13.84;87.20
5952;BME280;3001;42.622;23.194;2023-05-24T00:04:38;91170.56;;;13.76;87.10
5952;BME280;3001;42.622;23.194;2023-05-24T00:07:05;91172.94;;;13.69;87.06
5952;BME280;3001;42.622;23.194;2023-05-24T00:09:32;91176.00;;;13.83;85.84
5952;BME280;3001;42.622;23.194;2023-05-24T00:12:00;91170.47;;;13.84;86.51
5952;BME280;3001;42.622;23.194;2023-05-24T00:14:27;91168.22;;;13.95;87.09
5952;BME280;3001;42.622;23.194;2023-05-24T00:16:53;91168.88;;;13.92;87.16
5952;BME280;3001;42.622;23.194;2023-05-24T00:19:20;91173.41;;;13.83;87.58
5952;BME280;3001;42.622;23.194;2023-05-24T00:21:47;91165.34;;;13.76;87.12
5952;BME280;3001;42.622;23.194;2023-05-24T00:24:14;91162.28;;;13.74;87.90
5952;BME280;3001;42.622;23.194;2023-05-24T00:26:41;91161.59;;;13.65;87.91
5952;BME280;3001;42.622;23.194;2023-05-24T00:29:09;91162.66;;;13.64;89.56
5952;BME280;3001;42.622;23.194;2023-05-24T00:31:36;91162.06;;;13.79;87.79
5952;BME280;3001;42.622;23.194;2023-05-24T00:34:04;91159.22;;;13.72;89.53
5952;BME280;3001;42.622;23.194;2023-05-24T00:36:31;91154.97;;;13.68;89.93
5952;BME280;3001;42.622;23.194;2023-05-24T00:38:58;91159.97;;;13.73;89.32
5952;BME280;3001;42.622;23.194;2023-05-24T00:41:24;91153.03;;;13.77;89.49
5952;BME280;3001;42.622;23.194;2023-05-24T00:43:51;91147.88;;;13.68;88.65
5952;BME280;3001;42.622;23.194;2023-05-24T00:46:21;91150.19;;;13.70;88.90
5952;BME280;3001;42.622;23.194;2023-05-24T00:48:50;91153.81;;;13.77;87.32
5952;BME280;3001;42.622;23.194;2023-05-24T00:51:17;91157.06;;;13.74;87.06
5952;BME280;3001;42.622;23.194;2023-05-24T00:53:45;91154.13;;;13.76;86.23
5952;BME280;3001;42.622;23.194;2023-05-24T00:56:12;91152.06;;;13.69;87.13
5952;BME280;3001;42.622;23.194;2023-05-24T00:58:40;91149.19;;;13.62;86.41
5952;BME280;3001;42.622;23.194;2023-05-24T01:01:07;91152.31;;;13.56;86.56
5952;BME280;3001;42.622;23.194;2023-05-24T01:03:35;91149.25;;;13.54;86.90
5952;BME280;3001;42.622;23.194;2023-05-24T01:06:04;91160.56;;;13.58;88.36
5952;BME280;3001;42.622;23.194;2023-05-24T01:08:41;91157.88;;;13.66;86.30
5952;BME280;3001;42.622;23.194;2023-05-24T01:11:16;91160.84;;;13.77;86.04
5952;BME280;3001;42.622;23.194;2023-05-24T01:13:50;91156.97;;;13.82;86.06
5952;BME280;3001;42.622;23.194;2023-05-24T01:16:23;91155.31;;;13.78;86.95
5952;BME280;3001;42.622;23.194;2023-05-24T01:18:54;91161.72;;;13.69;88.19
5952;BME280;3001;42.622;23.194;2023-05-24T01:21:36;91162.22;;;13.62;89.11
5952;BME280;3001;42.622;23.194;2023-05-24T01:24:18;91170.41;;;13.61;88.75
5952;BME280;3001;42.622;23.194;2023-05-24T01:27:13;91171.00;;;13.58;88.16
5952;BME280;3001;42.622;23.194;2023-05-24T01:29:40;91165.13;;;13.49;88.48
5952;BME280;3001;42.622;23.194;2023-05-24T01:32:08;91161.94;;;13.43;89.32
5952;BME280;3001;42.622;23.194;2023-05-24T01:34:35;91171.13;;;13.49;87.04
5952;BME280;3001;42.622;23.194;2023-05-24T01:37:02;91171.03;;;13.37;88.14
5952;BME280;3001;42.622;23.194;2023-05-24T01:39:29;91165.16;;;13.28;88.27
5952;BME280;3001;42.622;23.194;2023-05-24T01:42:04;91164.22;;;13.24;87.99
5952;BME280;3001;42.622;23.194;2023-05-24T01:44:36;91170.38;;;13.28;87.32
5952;BME280;3001;42.622;23.194;2023-05-24T01:47:12;91164.50;;;13.31;87.51
5952;BME280;3001;42.622;23.194;2023-05-24T01:49:49;91165.25;;;13.32;87.18
5952;BME280;3001;42.622;23.194;2023-05-24T01:52:19;91157.97;;;13.58;85.70
5952;BME280;3001;42.622;23.194;2023-05-24T01:54:51;91171.00;;;13.58;85.65
5952;BME280;3001;42.622;23.194;2023-05-24T01:57:18;91166.03;;;13.32;86.04
5952;BME280;3001;42.622;23.194;2023-05-24T01:59:48;91162.59;;;13.20;86.88
5952;BME280;3001;42.622;23.194;2023-05-24T02:02:16;91156.66;;;13.11;86.54
5952;BME280;3001;42.622;23.194;2023-05-24T02:04:43;91160.41;;;13.01;87.27
5952;BME280;3001;42.622;23.194;2023-05-24T02:07:09;91150.31;;;13.00;87.83
5952;BME280;3001;42.622;23.194;2023-05-24T02:09:36;91163.47;;;13.03;87.45
5952;BME280;3001;42.622;23.194;2023-05-24T02:12:03;91159.66;;;13.01;86.53
5952;BME280;3001;42.622;23.194;2023-05-24T02:14:30;91148.22;;;12.93;87.11
5952;BME280;3001;42.622;23.194;2023-05-24T02:16:58;91151.41;;;12.99;86.84
5952;BME280;3001;42.622;23.194;2023-05-24T02:19:26;91152.19;;;12.91;86.51
5952;BME280;3001;42.622;23.194;2023-05-24T02:21:53;91157.22;;;12.96;85.67
5952;BME280;3001;42.622;23.194;2023-05-24T02:24:20;91151.44;;;12.90;86.57
5952;BME280;3001;42.622;23.194;2023-05-24T02:26:46;91143.88;;;12.97;86.13
5952;BME280;3001;42.622;23.194;2023-05-24T02:29:14;91139.44;;;12.98;86.76
5952;BME280;3001;42.622;23.194;2023-05-24T02:31:40;91142.88;;;12.81;87.19
5952;BME280;3001;42.622;23.194;2023-05-24T02:34:08;91148.09;;;12.81;85.69
5952;BME280;3001;42.622;23.194;2023-05-24T02:36:35;91140.16;;;12.78;86.00
5952;BME280;3001;42.622;23.194;2023-05-24T02:39:02;91140.91;;;12.78;87.63
5952;BME280;3001;42.622;23.194;2023-05-24T02:41:30;91138.81;;;12.72;87.92
5952;BME280;3001;42.622;23.194;2023-05-24T02:43:57;91138.81;;;12.72;88.07
5952;BME280;3001;42.622;23.194;2023-05-24T02:46:23;91139.63;;;12.84;88.29
5952;BME280;3001;42.622;23.194;2023-05-24T02:48:50;91136.91;;;12.81;88.34
5952;BME280;3001;42.622;23.194;2023-05-24T02:51:18;91142.38;;;12.67;88.26
5952;BME280;3001;42.622;23.194;2023-05-24T02:53:45;91144.09;;;12.55;87.94
5952;BME280;3001;42.622;23.194;2023-05-24T02:56:12;91139.88;;;12.50;88.61
5952;BME280;3001;42.622;23.194;2023-05-24T02:58:42;91134.19;;;12.48;88.40
5952;BME280;3001;42.622;23.194;2023-05-24T03:01:09;91140.03;;;12.45;87.71
5952;BME280;3001;42.622;23.194;2023-05-24T03:03:36;91142.19;;;12.43;87.96
5952;BME280;3001;42.622;23.194;2023-05-24T03:06:03;91149.94;;;12.52;88.14
5952;BME280;3001;42.622;23.194;2023-05-24T03:08:32;91151.94;;;12.55;87.85
5952;BME280;3001;42.622;23.194;2023-05-24T03:10:59;91151.31;;;12.58;87.25
5952;BME280;3001;42.622;23.194;2023-05-24T03:13:26;91152.84;;;12.59;87.06
5952;BME280;3001;42.622;23.194;2023-05-24T03:15:52;91158.94;;;12.63;87.21
5952;BME280;3001;42.622;23.194;2023-05-24T03:18:19;91154.22;;;12.56;85.94
5952;BME280;3001;42.622;23.194;2023-05-24T03:20:46;91154.00;;;12.41;87.52
5952;BME280;3001;42.622;23.194;2023-05-24T03:23:12;91158.44;;;12.40;88.45
5952;BME280;3001;42.622;23.194;2023-05-24T03:25:40;91153.22;;;12.40;88.65
5952;BME280;3001;42.622;23.194;2023-05-24T03:28:07;91160.13;;;12.45;89.54
5952;BME280;3001;42.622;23.194;2023-05-24T03:30:34;91163.44;;;12.54;89.04
5952;BME280;3001;42.622;23.194;2023-05-24T03:33:01;91163.53;;;12.66;89.09
5952;BME280;3001;42.622;23.194;2023-05-24T03:35:28;91174.34;;;12.76;88.55
5952;BME280;3001;42.622;23.194;2023-05-24T03:37:54;91169.41;;;12.83;88.99
5952;BME280;3001;42.622;23.194;2023-05-24T03:40:21;91167.53;;;12.92;89.36
5952;BME280;3001;42.622;23.194;2023-05-24T03:42:51;91164.63;;;13.14;88.61
5952;BME280;3001;42.622;23.194;2023-05-24T03:45:17;91168.13;;;12.98;88.43
5952;BME280;3001;42.622;23.194;2023-05-24T03:47:44;91178.38;;;13.03;88.90
5952;BME280;3001;42.622;23.194;2023-05-24T03:50:11;91180.84;;;12.99;87.82
5952;BME280;3001;42.622;23.194;2023-05-24T03:52:38;91173.66;;;13.17;87.84
5952;BME280;3001;42.622;23.194;2023-05-24T03:55:06;91174.88;;;13.19;87.75
5952;BME280;3001;42.622;23.194;2023-05-24T03:57:32;91174.97;;;13.02;88.69
5952;BME280;3001;42.622;23.194;2023-05-24T04:00:00;91182.56;;;12.95;89.32
5952;BME280;3001;42.622;23.194;2023-05-24T04:02:28;91179.75;;;13.00;88.34
5952;BME280;3001;42.622;23.194;2023-05-24T04:04:55;91184.66;;;13.02;88.27
5952;BME280;3001;42.622;23.194;2023-05-24T04:07:22;91179.88;;;13.04;88.08
5952;BME280;3001;42.622;23.194;2023-05-24T04:09:48;91182.06;;;13.02;89.24
5952;BME280;3001;42.622;23.194;2023-05-24T04:12:15;91184.78;;;13.05;89.90
5952;BME280;3001;42.622;23.194;2023-05-24T04:14:42;91190.72;;;13.14;89.95
5952;BME280;3001;42.622;23.194;2023-05-24T04:17:10;91187.66;;;13.12;89.76
5952;BME280;3001;42.622;23.194;2023-05-24T04:19:36;91188.69;;;13.20;90.03
5952;BME280;3001;42.622;23.194;2023-05-24T04:22:03;91184.78;;;13.26;89.55
5952;BME280;3001;42.622;23.194;2023-05-24T04:24:30;91184.47;;;13.27;89.75
5952;BME280;3001;42.622;23.194;2023-05-24T04:26:57;91181.03;;;13.35;91.39
5952;BME280;3001;42.622;23.194;2023-05-24T04:29:23;91191.69;;;13.30;92.32
5952;BME280;3001;42.622;23.194;2023-05-24T04:31:51;91178.88;;;13.37;93.09
5952;BME280;3001;42.622;23.194;2023-05-24T04:34:19;91182.69;;;13.40;94.03
5952;BME280;3001;42.622;23.194;2023-05-24T04:36:47;91187.78;;;13.36;95.17
5952;BME280;3001;42.622;23.194;2023-05-24T04:39:16;91190.31;;;13.45;94.12
5952;BME280;3001;42.622;23.194;2023-05-24T04:41:44;91188.03;;;13.64;94.41
5952;BME280;3001;42.622;23.194;2023-05-24T04:44:11;91188.81;;;13.76;94.15
5952;BME280;3001;42.622;23.194;2023-05-24T04:46:37;91197.75;;;13.75;94.83
5952;BME280;3001;42.622;23.194;2023-05-24T04:49:04;91204.78;;;13.75;94.85
5952;BME280;3001;42.622;23.194;2023-05-24T04:51:34;91199.72;;;13.78;94.06
5952;BME280;3001;42.622;23.194;2023-05-24T04:54:03;91198.19;;;13.77;95.21
5952;BME280;3001;42.622;23.194;2023-05-24T04:56:33;91209.56;;;13.93;95.79
5952;BME280;3001;42.622;23.194;2023-05-24T04:58:59;91200.31;;;13.95;96.67
5952;BME280;3001;42.622;23.194;2023-05-24T05:01:26;91195.78;;;14.04;98.64
5952;BME280;3001;42.622;23.194;2023-05-24T05:03:53;91205.88;;;14.06;99.20
5952;BME280;3001;42.622;23.194;2023-05-24T05:06:19;91207.16;;;14.20;98.58
5952;BME280;3001;42.622;23.194;2023-05-24T05:08:48;91206.75;;;14.30;97.04
5952;BME280;3001;42.622;23.194;2023-05-24T05:11:14;91201.97;;;14.44;96.31
5952;BME280;3001;42.622;23.194;2023-05-24T05:13:42;91201.44;;;14.51;96.00
5952;BME280;3001;42.622;23.194;2023-05-24T05:16:09;91215.81;;;14.57;94.58
5952;BME280;3001;42.622;23.194;2023-05-24T05:18:36;91210.28;;;14.70;94.07
5952;BME280;3001;42.622;23.194;2023-05-24T05:21:03;91203.28;;;14.74;94.03
5952;BME280;3001;42.622;23.194;2023-05-24T05:23:29;91207.69;;;14.82;94.18
5952;BME280;3001;42.622;23.194;2023-05-24T05:25:57;91204.91;;;14.91;93.70
5952;BME280;3001;42.622;23.194;2023-05-24T05:28:24;91205.03;;;14.94;93.67
5952;BME280;3001;42.622;23.194;2023-05-24T05:30:51;91203.16;;;15.07;92.69
5952;BME280;3001;42.622;23.194;2023-05-24T05:33:17;91210.34;;;15.22;91.88
5952;BME280;3001;42.622;23.194;2023-05-24T05:35:44;91213.75;;;15.34;91.15
5952;BME280;3001;42.622;23.194;2023-05-24T05:38:11;91211.25;;;15.38;89.04
5952;BME280;3001;42.622;23.194;2023-05-24T05:40:37;91212.41;;;15.52;91.05
5952;BME280;3001;42.622;23.194;2023-05-24T05:43:05;91211.06;;;15.58;90.00
5952;BME280;3001;42.622;23.194;2023-05-24T05:45:33;91214.13;;;15.60;89.48
5952;BME280;3001;42.622;23.194;2023-05-24T05:48:00;91214.34;;;15.67;90.53
5952;BME280;3001;42.622;23.194;2023-05-24T05:50:27;91218.13;;;15.69;90.87
5952;BME280;3001;42.622;23.194;2023-05-24T05:52:53;91217.81;;;15.71;90.29
5952;BME280;3001;42.622;23.194;2023-05-24T05:55:20;91216.88;;;15.91;89.25
5952;BME280;3001;42.622;23.194;2023-05-24T05:57:47;91222.28;;;15.98;89.96
5952;BME280;3001;42.622;23.194;2023-05-24T06:00:16;91225.28;;;16.12;89.22
5952;BME280;3001;42.622;23.194;2023-05-24T06:02:43;91230.28;;;16.17;88.31
5952;BME280;3001;42.622;23.194;2023-05-24T06:05:10;91237.25;;;16.25;87.86
5952;BME280;3001;42.622;23.194;2023-05-24T06:07:36;91236.38;;;16.21;88.68
5952;BME280;3001;42.622;23.194;2023-05-24T06:10:04;91246.94;;;16.36;86.98
5952;BME280;3001;42.622;23.194;2023-05-24T06:12:31;91240.53;;;16.49;80.52
5952;BME280;3001;42.622;23.194;2023-05-24T06:14:58;91245.97;;;16.72;78.44
5952;BME280;3001;42.622;23.194;2023-05-24T06:17:26;91254.53;;;16.84;77.93
5952;BME280;3001;42.622;23.194;2023-05-24T06:19:53;91239.28;;;17.05;81.20
5952;BME280;3001;42.622;23.194;2023-05-24T06:22:20;91251.22;;;17.18;80.02
5952;BME280;3001;42.622;23.194;2023-05-24T06:24:47;91243.06;;;17.23;78.51
5952;BME280;3001;42.622;23.194;2023-05-24T06:27:14;91247.03;;;17.33;75.76
5952;BME280;3001;42.622;23.194;2023-05-24T06:29:41;91238.75;;;17.46;80.00
5952;BME280;3001;42.622;23.194;2023-05-24T06:32:07;91247.72;;;17.45;78.27
5952;BME280;3001;42.622;23.194;2023-05-24T06:34:36;91241.59;;;17.56;77.68
5952;BME280;3001;42.622;23.194;2023-05-24T06:37:03;91242.03;;;17.77;76.83
5952;BME280;3001;42.622;23.194;2023-05-24T06:39:29;91238.81;;;17.84;80.21
5952;BME280;3001;42.622;23.194;2023-05-24T06:41:56;91242.75;;;17.93;81.52
5952;BME280;3001;42.622;23.194;2023-05-24T06:44:23;91238.25;;;17.94;81.12
5952;BME280;3001;42.622;23.194;2023-05-24T06:46:56;91239.44;;;18.15;82.13
5952;BME280;3001;42.622;23.194;2023-05-24T06:49:22;91234.59;;;18.36;81.55
5952;BME280;3001;42.622;23.194;2023-05-24T06:51:50;91235.78;;;18.39;80.91
5952;BME280;3001;42.622;23.194;2023-05-24T06:54:17;91240.88;;;18.51;81.74
5952;BME280;3001;42.622;23.194;2023-05-24T06:56:44;91232.97;;;18.70;81.72
5952;BME280;3001;42.622;23.194;2023-05-24T06:59:10;91235.59;;;18.70;81.14
5952;BME280;3001;42.622;23.194;2023-05-24T07:01:38;91226.34;;;18.79;80.96
5952;BME280;3001;42.622;23.194;2023-05-24T07:04:07;91231.09;;;18.93;80.79
5952;BME280;3001;42.622;23.194;2023-05-24T07:06:33;91243.31;;;19.04;78.33
5952;BME280;3001;42.622;23.194;2023-05-24T07:09:03;91237.00;;;19.09;77.74
5952;BME280;3001;42.622;23.194;2023-05-24T07:11:30;91238.97;;;19.15;77.13
5952;BME280;3001;42.622;23.194;2023-05-24T07:13:57;91236.25;;;19.30;75.63
5952;BME280;3001;42.622;23.194;2023-05-24T07:16:24;91233.69;;;19.37;76.73
5952;BME280;3001;42.622;23.194;2023-05-24T07:18:50;91235.75;;;19.47;74.94
5952;BME280;3001;42.622;23.194;2023-05-24T07:21:17;91240.59;;;19.45;75.32
5952;BME280;3001;42.622;23.194;2023-05-24T07:23:43;91242.16;;;19.50;75.21
5952;BME280;3001;42.622;23.194;2023-05-24T07:26:12;91242.63;;;19.55;74.18
5952;BME280;3001;42.622;23.194;2023-05-24T07:28:38;91242.31;;;19.60;74.17
5952;BME280;3001;42.622;23.194;2023-05-24T07:31:07;91240.44;;;19.61;73.14
5952;BME280;3001;42.622;23.194;2023-05-24T07:33:35;91244.09;;;19.79;73.59
5952;BME280;3001;42.622;23.194;2023-05-24T07:36:01;91248.69;;;19.85;73.53
5952;BME280;3001;42.622;23.194;2023-05-24T07:38:29;91241.81;;;20.03;71.69
5952;BME280;3001;42.622;23.194;2023-05-24T07:40:58;91253.63;;;20.16;71.27
5952;BME280;3001;42.622;23.194;2023-05-24T07:43:26;91250.41;;;20.30;72.83
5952;BME280;3001;42.622;23.194;2023-05-24T07:45:53;91249.00;;;20.39;72.41
5952;BME280;3001;42.622;23.194;2023-05-24T07:48:20;91252.59;;;20.57;70.14
5952;BME280;3001;42.622;23.194;2023-05-24T07:50:48;91252.69;;;20.64;71.35
5952;BME280;3001;42.622;23.194;2023-05-24T07:53:15;91239.94;;;20.73;71.38
5952;BME280;3001;42.622;23.194;2023-05-24T07:55:41;91248.66;;;20.77;71.05
5952;BME280;3001;42.622;23.194;2023-05-24T07:58:08;91246.59;;;20.93;71.44
5952;BME280;3001;42.622;23.194;2023-05-24T08:00:36;91242.19;;;21.04;69.49
5952;BME280;3001;42.622;23.194;2023-05-24T08:03:04;91251.41;;;21.24;67.22
5952;BME280;3001;42.622;23.194;2023-05-24T08:05:31;91253.72;;;21.32;68.87
5952;BME280;3001;42.622;23.194;2023-05-24T08:07:58;91245.94;;;21.50;69.13
5952;BME280;3001;42.622;23.194;2023-05-24T08:10:25;91248.38;;;21.69;66.85
5952;BME280;3001;42.622;23.194;2023-05-24T08:12:51;91245.41;;;21.77;67.99
5952;BME280;3001;42.622;23.194;2023-05-24T08:15:20;91234.81;;;21.81;65.58
5952;BME280;3001;42.622;23.194;2023-05-24T08:17:48;91250.84;;;22.05;64.97
5952;BME280;3001;42.622;23.194;2023-05-24T08:20:15;91250.88;;;22.09;66.06
5952;BME280;3001;42.622;23.194;2023-05-24T08:22:42;91249.75;;;22.17;66.26
5952;BME280;3001;42.622;23.194;2023-05-24T08:25:09;91243.41;;;22.32;65.05
5952;BME280;3001;42.622;23.194;2023-05-24T08:27:36;91245.41;;;22.49;64.71
5952;BME280;3001;42.622;23.194;2023-05-24T08:30:04;91245.47;;;22.77;64.74
5952;BME280;3001;42.622;23.194;2023-05-24T08:32:30;91250.41;;;22.85;61.08
5952;BME280;3001;42.622;23.194;2023-05-24T08:34:59;91250.81;;;22.91;60.40
5952;BME280;3001;42.622;23.194;2023-05-24T08:37:25;91258.00;;;23.00;61.77
5952;BME280;3001;42.622;23.194;2023-05-24T08:39:52;91254.28;;;23.15;61.35
5952;BME280;3001;42.622;23.194;2023-05-24T08:42:19;91263.38;;;23.32;59.44
5952;BME280;3001;42.622;23.194;2023-05-24T08:44:51;91254.31;;;23.40;59.25
5952;BME280;3001;42.622;23.194;2023-05-24T08:47:19;91252.03;;;23.35;57.77
5952;BME280;3001;42.622;23.194;2023-05-24T08:49:46;91251.28;;;23.45;58.05
5952;BME280;3001;42.622;23.194;2023-05-24T08:52:15;91259.22;;;23.52;58.89
5952;BME280;3001;42.622;23.194;2023-05-24T08:54:42;91252.03;;;23.56;60.38
5952;BME280;3001;42.622;23.194;2023-05-24T08:57:09;91253.16;;;23.72;59.08
5952;BME280;3001;42.622;23.194;2023-05-24T08:59:38;91261.13;;;23.79;55.60
5952;BME280;3001;42.622;23.194;2023-05-24T09:02:05;91255.44;;;23.81;55.55
5952;BME280;3001;42.622;23.194;2023-05-24T09:04:35;91252.78;;;23.84;57.37
5952;BME280;3001;42.622;23.194;2023-05-24T09:07:04;91253.91;;;24.11;56.60
5952;BME280;3001;42.622;23.194;2023-05-24T09:09:33;91255.38;;;24.23;55.52
5952;BME280;3001;42.622;23.194;2023-05-24T09:12:03;91247.78;;;24.25;55.42
5952;BME280;3001;42.622;23.194;2023-05-24T09:14:31;91248.13;;;24.41;54.91
5952;BME280;3001;42.622;23.194;2023-05-24T09:16:58;91255.22;;;24.68;51.47
5952;BME280;3001;42.622;23.194;2023-05-24T09:19:25;91250.66;;;24.76;54.98
5952;BME280;3001;42.622;23.194;2023-05-24T09:21:53;91251.38;;;24.79;54.64
5952;BME280;3001;42.622;23.194;2023-05-24T09:24:22;91254.03;;;24.83;54.05
5952;BME280;3001;42.622;23.194;2023-05-24T09:26:50;91244.53;;;24.85;50.07
5952;BME280;3001;42.622;23.194;2023-05-24T09:29:21;91246.41;;;24.92;56.71
5952;BME280;3001;42.622;23.194;2023-05-24T09:31:47;91256.31;;;24.84;53.79
5952;BME280;3001;42.622;23.194;2023-05-24T09:34:14;91250.63;;;24.83;52.85
5952;BME280;3001;42.622;23.194;2023-05-24T09:36:41;91255.84;;;25.03;54.94
5952;BME280;3001;42.622;23.194;2023-05-24T09:39:11;91255.34;;;25.15;52.72
5952;BME280;3001;42.622;23.194;2023-05-24T09:41:38;91258.75;;;25.23;51.82
5952;BME280;3001;42.622;23.194;2023-05-24T09:44:06;91254.88;;;25.34;53.88
5952;BME280;3001;42.622;23.194;2023-05-24T09:46:36;91252.88;;;25.49;51.33
5952;BME280;3001;42.622;23.194;2023-05-24T09:49:03;91249.75;;;25.61;50.05
5952;BME280;3001;42.622;23.194;2023-05-24T09:51:35;91254.59;;;25.73;50.02
5952;BME280;3001;42.622;23.194;2023-05-24T09:54:02;91249.97;;;25.80;52.11
5952;BME280;3001;42.622;23.194;2023-05-24T09:56:29;91234.84;;;25.74;48.66
5952;BME280;3001;42.622;23.194;2023-05-24T09:58:58;91240.41;;;25.90;48.35
5952;BME280;3001;42.622;23.194;2023-05-24T10:01:33;91252.63;;;25.84;47.97
5952;BME280;3001;42.622;23.194;2023-05-24T10:04:00;91249.13;;;25.94;49.71
5952;BME280;3001;42.622;23.194;2023-05-24T10:06:32;91238.75;;;26.03;48.88
5952;BME280;3001;42.622;23.194;2023-05-24T10:09:02;91242.84;;;26.14;50.82
5952;BME280;3001;42.622;23.194;2023-05-24T10:11:31;91233.50;;;26.33;48.00
5952;BME280;3001;42.622;23.194;2023-05-24T10:13:58;91239.16;;;26.38;46.59
5952;BME280;3001;42.622;23.194;2023-05-24T10:16:25;91240.97;;;26.45;47.59
5952;BME280;3001;42.622;23.194;2023-05-24T10:18:53;91249.72;;;26.49;47.05
5952;BME280;3001;42.622;23.194;2023-05-24T10:21:22;91254.53;;;26.61;47.96
5952;BME280;3001;42.622;23.194;2023-05-24T10:23:51;91251.56;;;26.55;44.99
5952;BME280;3001;42.622;23.194;2023-05-24T10:26:23;91240.28;;;26.74;47.71
5952;BME280;3001;42.622;23.194;2023-05-24T10:28:53;91238.53;;;26.90;47.25
5952;BME280;3001;42.622;23.194;2023-05-24T10:31:23;91245.00;;;26.93;45.71
5952;BME280;3001;42.622;23.194;2023-05-24T10:33:54;91235.72;;;27.01;46.90
5952;BME280;3001;42.622;23.194;2023-05-24T10:36:25;91240.63;;;27.06;45.68
5952;BME280;3001;42.622;23.194;2023-05-24T10:38:53;91236.44;;;27.05;43.97
5952;BME280;3001;42.622;23.194;2023-05-24T10:41:20;91241.66;;;27.15;43.61
5952;BME280;3001;42.622;23.194;2023-05-24T10:43:47;91228.69;;;27.17;44.11
5952;BME280;3001;42.622;23.194;2023-05-24T10:46:14;91236.53;;;27.28;43.23
5952;BME280;3001;42.622;23.194;2023-05-24T10:48:41;91223.09;;;27.35;41.74
5952;BME280;3001;42.622;23.194;2023-05-24T10:51:31;91233.16;;;27.50;39.52
5952;BME280;3001;42.622;23.194;2023-05-24T10:54:15;91218.00;;;27.44;42.02
5952;BME280;3001;42.622;23.194;2023-05-24T10:56:44;91219.72;;;27.57;42.10
5952;BME280;3001;42.622;23.194;2023-05-24T10:59:31;91216.97;;;27.61;42.55
5952;BME280;3001;42.622;23.194;2023-05-24T11:02:02;91226.94;;;27.57;41.39
5952;BME280;3001;42.622;23.194;2023-05-24T11:04:32;91219.06;;;27.50;41.25
5952;BME280;3001;42.622;23.194;2023-05-24T11:07:04;91223.81;;;27.62;40.65
5952;BME280;3001;42.622;23.194;2023-05-24T11:09:34;91223.59;;;27.53;39.47
5952;BME280;3001;42.622;23.194;2023-05-24T11:12:03;91224.97;;;27.61;41.30
5952;BME280;3001;42.622;23.194;2023-05-24T11:14:35;91220.16;;;27.52;44.11
5952;BME280;3001;42.622;23.194;2023-05-24T11:17:02;91215.81;;;27.62;44.00
5952;BME280;3001;42.622;23.194;2023-05-24T11:19:31;91219.59;;;27.64;43.24
5952;BME280;3001;42.622;23.194;2023-05-24T11:22:01;91201.84;;;27.77;43.26
5952;BME280;3001;42.622;23.194;2023-05-24T11:24:29;91216.19;;;27.87;41.42
5952;BME280;3001;42.622;23.194;2023-05-24T11:26:57;91204.00;;;27.86;42.81
5952;BME280;3001;42.622;23.194;2023-05-24T11:29:24;91211.56;;;27.91;41.41
5952;BME280;3001;42.622;23.194;2023-05-24T11:31:52;91213.94;;;27.85;38.11
5952;BME280;3001;42.622;23.194;2023-05-24T11:34:19;91208.25;;;27.83;41.19
5952;BME280;3001;42.622;23.194;2023-05-24T11:36:46;91206.56;;;27.93;41.58
5952;BME280;3001;42.622;23.194;2023-05-24T11:39:14;91203.75;;;28.00;41.95
5952;BME280;3001;42.622;23.194;2023-05-24T11:41:43;91212.19;;;27.98;41.99
5952;BME280;3001;42.622;23.194;2023-05-24T11:44:10;91203.22;;;28.08;40.66
5952;BME280;3001;42.622;23.194;2023-05-24T11:46:38;91202.00;;;28.13;41.91
5952;BME280;3001;42.622;23.194;2023-05-24T11:49:05;91203.16;;;28.12;38.10
5952;BME280;3001;42.622;23.194;2023-05-24T11:51:33;91204.72;;;28.09;41.18
5952;BME280;3001;42.622;23.194;2023-05-24T11:54:00;91196.38;;;28.07;39.86
5952;BME280;3001;42.622;23.194;2023-05-24T11:56:28;91203.66;;;28.26;38.47
5952;BME280;3001;42.622;23.194;2023-05-24T11:59:07;91199.41;;;28.29;38.25
5952;BME280;3001;42.622;23.194;2023-05-24T12:01:35;91198.66;;;28.28;40.98
5952;BME280;3001;42.622;23.194;2023-05-24T12:04:04;91195.97;;;28.28;40.52
5952;BME280;3001;42.622;23.194;2023-05-24T12:06:35;91198.13;;;28.37;40.34
5952;BME280;3001;42.622;23.194;2023-05-24T12:09:02;91197.59;;;28.45;39.38
5952;BME280;3001;42.622;23.194;2023-05-24T12:11:32;91197.72;;;28.58;39.69
5952;BME280;3001;42.622;23.194;2023-05-24T12:14:01;91196.16;;;28.60;39.48
5952;BME280;3001;42.622;23.194;2023-05-24T12:16:28;91198.06;;;28.59;38.11
5952;BME280;3001;42.622;23.194;2023-05-24T12:18:57;91202.88;;;28.68;39.85
5952;BME280;3001;42.622;23.194;2023-05-24T12:21:24;91197.50;;;28.68;37.28
5952;BME280;3001;42.622;23.194;2023-05-24T12:23:51;91195.72;;;28.61;36.88
5952;BME280;3001;42.622;23.194;2023-05-24T12:26:18;91188.06;;;28.63;38.57
5952;BME280;3001;42.622;23.194;2023-05-24T12:28:52;91189.75;;;28.73;37.59
5952;BME280;3001;42.622;23.194;2023-05-24T12:31:20;91183.75;;;28.69;36.67
5952;BME280;3001;42.622;23.194;2023-05-24T12:33:47;91191.47;;;28.83;36.32
5952;BME280;3001;42.622;23.194;2023-05-24T12:36:14;91181.00;;;28.92;36.99
5952;BME280;3001;42.622;23.194;2023-05-24T12:38:41;91176.31;;;28.96;37.90
5952;BME280;3001;42.622;23.194;2023-05-24T12:41:09;91176.34;;;29.12;38.90
5952;BME280;3001;42.622;23.194;2023-05-24T12:43:38;91182.28;;;29.20;37.88
5952;BME280;3001;42.622;23.194;2023-05-24T12:46:04;91172.50;;;29.13;39.14
5952;BME280;3001;42.622;23.194;2023-05-24T12:48:33;91174.50;;;29.25;36.66
5952;BME280;3001;42.622;23.194;2023-05-24T12:51:00;91178.22;;;29.31;38.50
5952;BME280;3001;42.622;23.194;2023-05-24T12:53:28;91171.44;;;29.43;36.15
5952;BME280;3001;42.622;23.194;2023-05-24T12:55:55;91174.03;;;29.46;38.73
5952;BME280;3001;42.622;23.194;2023-05-24T12:58:21;91171.94;;;29.54;37.72
5952;BME280;3001;42.622;23.194;2023-05-24T13:00:48;91178.31;;;29.60;35.78
5952;BME280;3001;42.622;23.194;2023-05-24T13:03:16;91170.63;;;29.62;35.78
5952;BME280;3001;42.622;23.194;2023-05-24T13:05:44;91177.75;;;29.52;35.11
5952;BME280;3001;42.622;23.194;2023-05-24T13:08:11;91163.34;;;29.62;37.84
5952;BME280;3001;42.622;23.194;2023-05-24T13:10:38;91172.13;;;29.63;39.48
5952;BME280;3001;42.622;23.194;2023-05-24T13:13:05;91164.25;;;29.72;38.09
5952;BME280;3001;42.622;23.194;2023-05-24T13:15:32;91166.78;;;29.63;35.89